sensor_id;sensor_type;location;lat;lon;timestamp;pressure;altitude;pressure_sealevel;temperature;humidity
68793;BME280;55778;54.346;10.210;2023-05-22T00:01:43;101520.28;;;13.89;100.00
68793;BME280;55778;54.346;10.210;2023-05-22T00:04:09;101519.41;;;13.89;100.00
68793;BME280;55778;54.346;10.210;2023-05-22T00:06:41;101518.72;;;13.77;100.00
68793;BME280;55778;54.346;10.210;2023-05-22T00:09:06;101516.84;;;13.78;100.00
68793;BME280;55778;54.346;10.210;2023-05-22T00:11:32;101520.59;;;13.77;100.00
68793;BME280;55778;54.346;10.210;2023-05-22T00:13:58;101513.53;;;13.74;100.00
68793;BME280;55778;54.346;10.210;2023-05-22T00:16:24;101507.47;;;13.71;100.00
68793;BME280;55778;54.346;10.210;2023-05-22T00:18:49;101509.97;;;13.55;100.00
68793;BME280;55778;54.346;10.210;2023-05-22T00:21:15;101505.50;;;13.54;100.00
68793;BME280;55778;54.346;10.210;2023-05-22T00:23:41;101509.56;;;13.50;100.00
68793;BME280;55778;54.346;10.210;2023-05-22T00:26:06;101498.31;;;13.43;100.00
68793;BME280;55778;54.346;10.210;2023-05-22T00:28:32;101513.19;;;13.41;100.00
68793;BME280;55778;54.346;10.210;2023-05-22T00:30:57;101508.28;;;13.35;100.00
68793;BME280;55778;54.346;10.210;2023-05-22T00:33:23;101509.00;;;13.27;100.00
68793;BME280;55778;54.346;10.210;2023-05-22T00:35:48;101512.03;;;13.24;100.00
68793;BME280;55778;54.346;10.210;2023-05-22T00:38:46;101510.28;;;13.23;100.00
68793;BME280;55778;54.346;10.210;2023-05-22T00:41:12;101509.28;;;13.15;100.00
68793;BME280;55778;54.346;10.210;2023-05-22T00:43:38;101502.38;;;13.01;100.00
68793;BME280;55778;54.346;10.210;2023-05-22T00:46:03;101508.56;;;13.03;100.00
68793;BME280;55778;54.346;10.210;2023-05-22T00:48:29;101512.59;;;12.99;100.00
68793;BME280;55778;54.346;10.210;2023-05-22T00:50:56;101505.41;;;13.08;100.00
68793;BME280;55778;54.346;10.210;2023-05-22T00:53:23;101497.56;;;12.94;100.00
68793;BME280;55778;54.346;10.210;2023-05-22T00:55:50;101504.50;;;12.88;100.00
68793;BME280;55778;54.346;10.210;2023-05-22T00:58:18;101504.50;;;12.88;100.00
68793;BME280;55778;54.346;10.210;2023-05-22T01:00:44;101501.16;;;12.85;100.00
68793;BME280;55778;54.346;10.210;2023-05-22T01:03:11;101501.47;;;12.82;100.00
68793;BME280;55778;54.346;10.210;2023-05-22T01:05:37;101505.63;;;12.76;100.00
68793;BME280;55778;54.346;10.210;2023-05-22T01:08:05;101505.19;;;12.81;100.00
68793;BME280;55778;54.346;10.210;2023-05-22T01:10:32;101513.41;;;12.81;100.00
68793;BME280;55778;54.346;10.210;2023-05-22T01:13:30;101512.06;;;12.66;100.00
68793;BME280;55778;54.346;10.210;2023-05-22T01:16:25;101505.63;;;12.76;100.00
68793;BME280;55778;54.346;10.210;2023-05-22T01:19:09;101506.81;;;12.83;100.00
68793;BME280;55778;54.346;10.210;2023-05-22T01:21:46;101503.47;;;12.80;100.00
68793;BME280;55778;54.346;10.210;2023-05-22T01:24:51;101506.34;;;12.78;100.00
68793;BME280;55778;54.346;10.210;2023-05-22T01:27:36;101492.97;;;12.75;100.00
68793;BME280;55778;54.346;10.210;2023-05-22T01:30:18;101497.00;;;12.71;100.00
68793;BME280;55778;54.346;10.210;2023-05-22T01:32:45;101492.09;;;12.75;100.00
68793;BME280;55778;54.346;10.210;2023-05-22T01:35:14;101488.22;;;12.77;100.00
68793;BME280;55778;54.346;10.210;2023-05-22T01:37:42;101489.50;;;12.73;100.00
68793;BME280;55778;54.346;10.210;2023-05-22T01:40:09;101498.25;;;12.67;100.00
68793;BME280;55778;54.346;10.210;2023-05-22T01:42:36;101493.38;;;12.71;100.00
68793;BME280;55778;54.346;10.210;2023-05-22T01:45:03;101489.34;;;12.65;100.00
68793;BME280;55778;54.346;10.210;2023-05-22T01:47:29;101484.03;;;12.64;100.00
68793;BME280;55778;54.346;10.210;2023-05-22T01:49:55;101487.31;;;12.58;100.00
68793;BME280;55778;54.346;10.210;2023-05-22T01:52:39;101483.28;;;12.62;100.00
68793;BME280;55778;54.346;10.210;2023-05-22T01:55:10;101484.13;;;12.53;100.00
68793;BME280;55778;54.346;10.210;2023-05-22T01:57:54;101480.09;;;12.57;100.00
68793;BME280;55778;54.346;10.210;2023-05-22T02:00:21;101477.66;;;12.54;100.00
68793;BME280;55778;54.346;10.210;2023-05-22T02:02:56;101483.72;;;12.57;100.00
68793;BME280;55778;54.346;10.210;2023-05-22T02:05:22;101482.56;;;12.50;100.00
68793;BME280;55778;54.346;10.210;2023-05-22T02:07:49;101473.19;;;12.43;100.00
68793;BME280;55778;54.346;10.210;2023-05-22T02:10:15;101482.38;;;12.42;100.00
68793;BME280;55778;54.346;10.210;2023-05-22T02:12:41;101479.22;;;12.37;100.00
68793;BME280;55778;54.346;10.210;2023-05-22T02:15:07;101480.66;;;12.41;100.00
68793;BME280;55778;54.346;10.210;2023-05-22T02:17:37;101476.78;;;12.44;100.00
68793;BME280;55778;54.346;10.210;2023-05-22T02:20:11;101472.75;;;12.38;100.00
68793;BME280;55778;54.346;10.210;2023-05-22T02:22:44;101472.75;;;12.38;100.00
68793;BME280;55778;54.346;10.210;2023-05-22T02:25:10;101468.88;;;12.50;100.00
68793;BME280;55778;54.346;10.210;2023-05-22T02:27:42;101469.44;;;12.44;100.00
68793;BME280;55778;54.346;10.210;2023-05-22T02:30:09;101476.78;;;12.34;100.00
68793;BME280;55778;54.346;10.210;2023-05-22T02:32:35;101468.28;;;12.37;100.00
68793;BME280;55778;54.346;10.210;2023-05-22T02:35:00;101472.88;;;12.37;100.00
68793;BME280;55778;54.346;10.210;2023-05-22T02:37:26;101472.31;;;12.43;100.00
68793;BME280;55778;54.346;10.210;2023-05-22T02:39:51;101466.72;;;12.44;100.00
68793;BME280;55778;54.346;10.210;2023-05-22T02:42:17;101460.81;;;12.58;100.00
68793;BME280;55778;54.346;10.210;2023-05-22T02:44:42;101456.38;;;12.57;100.00
68793;BME280;55778;54.346;10.210;2023-05-22T02:47:07;101459.69;;;12.51;100.00
68793;BME280;55778;54.346;10.210;2023-05-22T02:49:33;101455.50;;;12.47;100.00
68793;BME280;55778;54.346;10.210;2023-05-22T02:51:58;101454.22;;;12.51;100.00
68793;BME280;55778;54.346;10.210;2023-05-22T02:54:23;101440.84;;;12.58;100.00
68793;BME280;55778;54.346;10.210;2023-05-22T02:56:49;101433.50;;;12.58;100.00
68793;BME280;55778;54.346;10.210;2023-05-22T02:59:14;101438.66;;;12.42;100.00
68793;BME280;55778;54.346;10.210;2023-05-22T03:01:40;101443.84;;;12.45;100.00
68793;BME280;55778;54.346;10.210;2023-05-22T03:04:06;101428.72;;;12.51;100.00
68793;BME280;55778;54.346;10.210;2023-05-22T03:06:31;101419.97;;;12.47;100.00
68793;BME280;55778;54.346;10.210;2023-05-22T03:08:59;101434.63;;;12.37;100.00
68793;BME280;55778;54.346;10.210;2023-05-22T03:11:24;101430.91;;;12.47;100.00
68793;BME280;55778;54.346;10.210;2023-05-22T03:13:49;101425.53;;;12.36;100.00
68793;BME280;55778;54.346;10.210;2023-05-22T03:16:15;101424.97;;;12.33;100.00
68793;BME280;55778;54.346;10.210;2023-05-22T03:18:40;101424.13;;;12.42;100.00
68793;BME280;55778;54.346;10.210;2023-05-22T03:21:06;101425.28;;;12.49;100.00
68793;BME280;55778;54.346;10.210;2023-05-22T03:23:31;101417.94;;;12.49;100.00
68793;BME280;55778;54.346;10.210;2023-05-22T03:25:56;101414.22;;;12.50;100.00
68793;BME280;55778;54.346;10.210;2023-05-22T03:28:22;101423.44;;;12.59;100.00
68793;BME280;55778;54.346;10.210;2023-05-22T03:30:47;101413.19;;;12.51;100.00
68793;BME280;55778;54.346;10.210;2023-05-22T03:33:12;101422.25;;;12.61;100.00
68793;BME280;55778;54.346;10.210;2023-05-22T03:35:38;101420.25;;;12.63;100.00
68793;BME280;55778;54.346;10.210;2023-05-22T03:38:03;101416.38;;;12.66;100.00
68793;BME280;55778;54.346;10.210;2023-05-22T03:40:29;101426.31;;;12.57;100.00
68793;BME280;55778;54.346;10.210;2023-05-22T03:42:54;101421.72;;;12.58;100.00
68793;BME280;55778;54.346;10.210;2023-05-22T03:45:19;101419.69;;;12.50;100.00
68793;BME280;55778;54.346;10.210;2023-05-22T03:47:45;101421.72;;;12.58;100.00
68793;BME280;55778;54.346;10.210;2023-05-22T03:50:10;101413.19;;;12.51;100.00
68793;BME280;55778;54.346;10.210;2023-05-22T03:52:36;101419.97;;;12.57;100.00
68793;BME280;55778;54.346;10.210;2023-05-22T03:55:01;101420.25;;;12.54;100.00
68793;BME280;55778;54.346;10.210;2023-05-22T03:57:27;101427.56;;;12.44;100.00
68793;BME280;55778;54.346;10.210;2023-05-22T03:59:55;101423.25;;;12.51;100.00
68793;BME280;55778;54.346;10.210;2023-05-22T04:02:20;101415.34;;;12.48;100.00
68793;BME280;55778;54.346;10.210;2023-05-22T04:04:46;101423.41;;;12.49;100.00
68793;BME280;55778;54.346;10.210;2023-05-22T04:07:12;101420.84;;;12.57;100.00
68793;BME280;55778;54.346;10.210;2023-05-22T04:09:38;101415.50;;;12.56;100.00
68793;BME280;55778;54.346;10.210;2023-05-22T04:12:05;101411.75;;;12.57;100.00
68793;BME280;55778;54.346;10.210;2023-05-22T04:14:30;101413.38;;;12.59;100.00
68793;BME280;55778;54.346;10.210;2023-05-22T04:16:56;101416.38;;;12.75;100.00
68793;BME280;55778;54.346;10.210;2023-05-22T04:19:22;101421.84;;;12.75;100.00
68793;BME280;55778;54.346;10.210;2023-05-22T04:21:47;101408.63;;;12.71;100.00
68793;BME280;55778;54.346;10.210;2023-05-22T04:24:13;101414.78;;;12.63;100.00
68793;BME280;55778;54.346;10.210;2023-05-22T04:26:38;101409.31;;;12.63;100.00
68793;BME280;55778;54.346;10.210;2023-05-22T04:29:04;101415.94;;;12.61;100.00
68793;BME280;55778;54.346;10.210;2023-05-22T04:31:36;101418.53;;;12.62;100.00
68793;BME280;55778;54.346;10.210;2023-05-22T04:34:02;101411.50;;;12.69;100.00
68793;BME280;55778;54.346;10.210;2023-05-22T04:36:27;101410.78;;;12.77;100.00
68793;BME280;55778;54.346;10.210;2023-05-22T04:38:55;101404.41;;;12.95;100.00
68793;BME280;55778;54.346;10.210;2023-05-22T04:41:20;101400.97;;;12.93;100.00
68793;BME280;55778;54.346;10.210;2023-05-22T04:43:52;101405.88;;;13.09;100.00
68793;BME280;55778;54.346;10.210;2023-05-22T04:46:19;101406.56;;;13.30;100.00
68793;BME280;55778;54.346;10.210;2023-05-22T04:48:45;101400.63;;;13.34;100.00
68793;BME280;55778;54.346;10.210;2023-05-22T04:51:11;101401.66;;;13.33;100.00
68793;BME280;55778;54.346;10.210;2023-05-22T04:53:38;101411.72;;;13.42;100.00
68793;BME280;55778;54.346;10.210;2023-05-22T04:56:05;101396.84;;;13.54;100.00
68793;BME280;55778;54.346;10.210;2023-05-22T04:58:30;101409.38;;;13.47;100.00
68793;BME280;55778;54.346;10.210;2023-05-22T05:00:56;101396.50;;;13.67;100.00
68793;BME280;55778;54.346;10.210;2023-05-22T05:03:22;101408.72;;;13.72;100.00
68793;BME280;55778;54.346;10.210;2023-05-22T05:05:50;101399.59;;;13.81;100.00
68793;BME280;55778;54.346;10.210;2023-05-22T05:08:15;101397.00;;;13.80;100.00
68793;BME280;55778;54.346;10.210;2023-05-22T05:10:40;101396.88;;;13.81;100.00
68793;BME280;55778;54.346;10.210;2023-05-22T05:13:06;101396.91;;;13.99;100.00
68793;BME280;55778;54.346;10.210;2023-05-22T05:15:31;101397.28;;;14.14;100.00
68793;BME280;55778;54.346;10.210;2023-05-22T05:17:57;101396.09;;;14.16;99.88
68793;BME280;55778;54.346;10.210;2023-05-22T05:20:22;101397.34;;;14.31;100.00
68793;BME280;55778;54.346;10.210;2023-05-22T05:22:48;101389.44;;;14.46;99.90
68793;BME280;55778;54.346;10.210;2023-05-22T05:25:15;101388.94;;;14.60;98.74
68793;BME280;55778;54.346;10.210;2023-05-22T05:27:40;101388.47;;;14.64;98.59
68793;BME280;55778;54.346;10.210;2023-05-22T05:30:06;101391.34;;;14.80;98.25
68793;BME280;55778;54.346;10.210;2023-05-22T05:32:31;101390.78;;;14.94;97.09
68793;BME280;55778;54.346;10.210;2023-05-22T05:34:57;101386.72;;;14.98;96.61
68793;BME280;55778;54.346;10.210;2023-05-22T05:37:22;101379.88;;;15.02;96.69
68793;BME280;55778;54.346;10.210;2023-05-22T05:39:48;101379.03;;;15.27;94.80
68793;BME280;55778;54.346;10.210;2023-05-22T05:42:13;101381.56;;;15.38;94.86
68793;BME280;55778;54.346;10.210;2023-05-22T05:44:39;101376.56;;;15.42;94.58
68793;BME280;55778;54.346;10.210;2023-05-22T05:47:04;101373.72;;;15.51;94.29
68793;BME280;55778;54.346;10.210;2023-05-22T05:49:30;101372.28;;;15.73;93.15
68793;BME280;55778;54.346;10.210;2023-05-22T05:51:55;101372.69;;;15.86;92.28
68793;BME280;55778;54.346;10.210;2023-05-22T05:54:21;101383.41;;;15.97;91.37
68793;BME280;55778;54.346;10.210;2023-05-22T05:56:46;101377.47;;;16.10;90.71
68793;BME280;55778;54.346;10.210;2023-05-22T05:59:12;101382.09;;;16.17;89.77
68793;BME280;55778;54.346;10.210;2023-05-22T06:01:42;101383.69;;;16.28;89.44
68793;BME280;55778;54.346;10.210;2023-05-22T06:04:08;101385.78;;;16.42;87.96
68793;BME280;55778;54.346;10.210;2023-05-22T06:06:34;101384.97;;;16.57;86.72
68793;BME280;55778;54.346;10.210;2023-05-22T06:09:01;101385.19;;;16.80;87.18
68793;BME280;55778;54.346;10.210;2023-05-22T06:11:27;101386.94;;;16.81;87.28
68793;BME280;55778;54.346;10.210;2023-05-22T06:13:52;101385.03;;;16.97;86.15
68793;BME280;55778;54.346;10.210;2023-05-22T06:16:18;101379.03;;;17.18;84.63
68793;BME280;55778;54.346;10.210;2023-05-22T06:18:44;101377.31;;;17.09;85.01
68793;BME280;55778;54.346;10.210;2023-05-22T06:21:10;101384.84;;;17.31;85.11
68793;BME280;55778;54.346;10.210;2023-05-22T06:23:36;101380.00;;;17.33;85.06
68793;BME280;55778;54.346;10.210;2023-05-22T06:26:01;101378.66;;;17.45;83.71
68793;BME280;55778;54.346;10.210;2023-05-22T06:28:27;101373.31;;;17.51;83.44
68793;BME280;55778;54.346;10.210;2023-05-22T06:30:52;101371.72;;;17.65;84.14
68793;BME280;55778;54.346;10.210;2023-05-22T06:33:18;101372.19;;;17.84;83.18
68793;BME280;55778;54.346;10.210;2023-05-22T06:35:43;101368.00;;;17.97;81.53
68793;BME280;55778;54.346;10.210;2023-05-22T06:38:09;101361.50;;;18.20;81.28
68793;BME280;55778;54.346;10.210;2023-05-22T06:40:34;101363.41;;;18.50;80.84
68793;BME280;55778;54.346;10.210;2023-05-22T06:43:00;101365.28;;;18.58;79.16
68793;BME280;55778;54.346;10.210;2023-05-22T06:45:25;101360.81;;;18.79;78.45
68793;BME280;55778;54.346;10.210;2023-05-22T06:47:54;101364.59;;;19.01;77.39
68793;BME280;55778;54.346;10.210;2023-05-22T06:50:20;101358.50;;;19.28;73.28
68793;BME280;55778;54.346;10.210;2023-05-22T06:52:46;101355.75;;;19.42;73.23
68793;BME280;55778;54.346;10.210;2023-05-22T06:55:12;101354.63;;;19.66;72.63
68793;BME280;55778;54.346;10.210;2023-05-22T06:57:37;101359.78;;;19.69;70.70
68793;BME280;55778;54.346;10.210;2023-05-22T07:00:03;101352.28;;;19.92;69.36
68793;BME280;55778;54.346;10.210;2023-05-22T07:02:33;101356.09;;;20.20;67.29
68793;BME280;55778;54.346;10.210;2023-05-22T07:04:59;101361.88;;;20.40;65.33
68793;BME280;55778;54.346;10.210;2023-05-22T07:07:24;101353.91;;;20.51;64.61
68793;BME280;55778;54.346;10.210;2023-05-22T07:09:49;101366.38;;;20.62;64.68
68793;BME280;55778;54.346;10.210;2023-05-22T07:12:15;101363.88;;;20.88;63.19
68793;BME280;55778;54.346;10.210;2023-05-22T07:14:40;101358.50;;;21.01;63.60
68793;BME280;55778;54.346;10.210;2023-05-22T07:17:06;101359.81;;;21.53;63.14
68793;BME280;55778;54.346;10.210;2023-05-22T07:19:32;101354.13;;;21.68;60.94
68793;BME280;55778;54.346;10.210;2023-05-22T07:21:58;101355.66;;;22.05;59.73
68793;BME280;55778;54.346;10.210;2023-05-22T07:24:24;101352.06;;;22.11;57.57
68793;BME280;55778;54.346;10.210;2023-05-22T07:26:49;101356.16;;;22.21;57.87
68793;BME280;55778;54.346;10.210;2023-05-22T07:29:15;101350.22;;;21.84;53.86
68793;BME280;55778;54.346;10.210;2023-05-22T07:31:40;101350.69;;;21.66;55.44
68793;BME280;55778;54.346;10.210;2023-05-22T07:34:06;101353.59;;;21.51;55.40
68793;BME280;55778;54.346;10.210;2023-05-22T07:36:31;101353.91;;;21.35;56.76
68793;BME280;55778;54.346;10.210;2023-05-22T07:38:58;101350.44;;;21.06;58.61
68793;BME280;55778;54.346;10.210;2023-05-22T07:41:24;101362.50;;;21.47;57.33
68793;BME280;55778;54.346;10.210;2023-05-22T07:43:49;101356.28;;;21.38;55.43
68793;BME280;55778;54.346;10.210;2023-05-22T07:46:15;101349.41;;;21.62;56.77
68793;BME280;55778;54.346;10.210;2023-05-22T07:48:40;101353.59;;;21.51;55.60
68793;BME280;55778;54.346;10.210;2023-05-22T07:51:06;101348.50;;;21.83;55.18
68793;BME280;55778;54.346;10.210;2023-05-22T07:53:32;101352.72;;;22.13;54.86
68793;BME280;55778;54.346;10.210;2023-05-22T07:55:57;101340.94;;;22.51;53.83
68793;BME280;55778;54.346;10.210;2023-05-22T07:58:22;101346.56;;;22.84;52.90
68793;BME280;55778;54.346;10.210;2023-05-22T08:00:48;101351.09;;;23.04;52.91
68793;BME280;55778;54.346;10.210;2023-05-22T08:03:14;101350.88;;;22.93;51.64
68793;BME280;55778;54.346;10.210;2023-05-22T08:05:39;101348.47;;;22.64;52.72
68793;BME280;55778;54.346;10.210;2023-05-22T08:08:04;101348.69;;;22.69;53.81
68793;BME280;55778;54.346;10.210;2023-05-22T08:10:30;101351.84;;;22.53;52.65
68793;BME280;55778;54.346;10.210;2023-05-22T08:12:55;101349.50;;;22.56;52.61
68793;BME280;55778;54.346;10.210;2023-05-22T08:15:22;101348.66;;;22.56;52.51
68793;BME280;55778;54.346;10.210;2023-05-22T08:17:48;101346.28;;;22.53;52.82
68793;BME280;55778;54.346;10.210;2023-05-22T08:20:13;101347.28;;;22.45;54.13
68793;BME280;55778;54.346;10.210;2023-05-22T08:22:39;101346.88;;;22.48;52.91
68793;BME280;55778;54.346;10.210;2023-05-22T08:25:05;101339.94;;;22.65;53.92
68793;BME280;55778;54.346;10.210;2023-05-22T08:27:30;101346.13;;;22.74;52.43
68793;BME280;55778;54.346;10.210;2023-05-22T08:29:56;101341.25;;;22.89;52.20
68793;BME280;55778;54.346;10.210;2023-05-22T08:32:21;101335.72;;;23.34;51.52
68793;BME280;55778;54.346;10.210;2023-05-22T08:34:47;101340.84;;;23.57;50.10
68793;BME280;55778;54.346;10.210;2023-05-22T08:37:12;101339.75;;;23.78;48.79
68793;BME280;55778;54.346;10.210;2023-05-22T08:39:39;101328.59;;;23.97;48.71
68793;BME280;55778;54.346;10.210;2023-05-22T08:42:05;101329.22;;;23.93;48.61
68793;BME280;55778;54.346;10.210;2023-05-22T08:44:30;101319.66;;;24.26;48.59
68793;BME280;55778;54.346;10.210;2023-05-22T08:46:56;101310.50;;;24.19;46.45
68793;BME280;55778;54.346;10.210;2023-05-22T08:49:24;101316.66;;;24.34;47.87
68793;BME280;55778;54.346;10.210;2023-05-22T08:51:54;101305.72;;;24.33;47.33
68793;BME280;55778;54.346;10.210;2023-05-22T08:54:20;101313.94;;;24.59;46.04
68793;BME280;55778;54.346;10.210;2023-05-22T08:56:49;101306.47;;;24.90;45.68
68793;BME280;55778;54.346;10.210;2023-05-22T08:59:15;101307.09;;;24.92;44.39
68793;BME280;55778;54.346;10.210;2023-05-22T09:01:40;101304.84;;;25.32;46.39
68793;BME280;55778;54.346;10.210;2023-05-22T09:04:06;101299.41;;;25.37;45.63
68793;BME280;55778;54.346;10.210;2023-05-22T09:06:32;101294.44;;;25.64;44.71
68793;BME280;55778;54.346;10.210;2023-05-22T09:09:00;101290.09;;;25.68;43.22
68793;BME280;55778;54.346;10.210;2023-05-22T09:11:27;101293.50;;;25.88;41.66
68793;BME280;55778;54.346;10.210;2023-05-22T09:14:05;101290.72;;;25.88;41.71
68793;BME280;55778;54.346;10.210;2023-05-22T09:16:31;101279.50;;;26.12;41.37
68793;BME280;55778;54.346;10.210;2023-05-22T09:18:56;101280.66;;;26.23;42.17
68793;BME280;55778;54.346;10.210;2023-05-22T09:21:26;101287.22;;;26.28;40.37
68793;BME280;55778;54.346;10.210;2023-05-22T09:23:51;101289.78;;;26.30;39.83
68793;BME280;55778;54.346;10.210;2023-05-22T09:26:17;101284.66;;;26.27;41.53
68793;BME280;55778;54.346;10.210;2023-05-22T09:28:42;101281.72;;;26.22;40.42
68793;BME280;55778;54.346;10.210;2023-05-22T09:31:08;101275.59;;;26.31;40.57
68793;BME280;55778;54.346;10.210;2023-05-22T09:33:35;101275.44;;;26.56;41.25
68793;BME280;55778;54.346;10.210;2023-05-22T09:36:01;101267.22;;;26.13;40.37
68793;BME280;55778;54.346;10.210;2023-05-22T09:38:28;101269.31;;;26.18;39.93
68793;BME280;55778;54.346;10.210;2023-05-22T09:40:55;101261.19;;;25.98;40.56
68793;BME280;55778;54.346;10.210;2023-05-22T09:43:21;101256.03;;;26.31;42.70
68793;BME280;55778;54.346;10.210;2023-05-22T09:45:55;101262.59;;;26.66;40.68
68793;BME280;55778;54.346;10.210;2023-05-22T09:48:22;101256.22;;;26.77;40.18
68793;BME280;55778;54.346;10.210;2023-05-22T09:50:47;101254.88;;;26.91;41.06
68793;BME280;55778;54.346;10.210;2023-05-22T09:53:15;101249.69;;;27.06;38.86
68793;BME280;55778;54.346;10.210;2023-05-22T09:55:46;101248.22;;;27.04;41.27
68793;BME280;55778;54.346;10.210;2023-05-22T09:58:12;101248.72;;;27.01;41.22
68793;BME280;55778;54.346;10.210;2023-05-22T10:00:41;101251.75;;;27.11;40.75
68793;BME280;55778;54.346;10.210;2023-05-22T10:03:08;101243.75;;;27.14;41.01
68793;BME280;55778;54.346;10.210;2023-05-22T10:05:44;101240.69;;;27.16;41.92
68793;BME280;55778;54.346;10.210;2023-05-22T10:08:16;101242.78;;;27.55;40.43
68793;BME280;55778;54.346;10.210;2023-05-22T10:10:49;101243.47;;;27.85;40.78
68793;BME280;55778;54.346;10.210;2023-05-22T10:13:16;101245.56;;;27.78;40.36
68793;BME280;55778;54.346;10.210;2023-05-22T10:15:42;101238.78;;;27.40;41.68
68793;BME280;55778;54.346;10.210;2023-05-22T10:18:08;101243.44;;;26.81;41.79
68793;BME280;55778;54.346;10.210;2023-05-22T10:20:34;101235.66;;;26.72;42.41
68793;BME280;55778;54.346;10.210;2023-05-22T10:23:01;101234.00;;;27.05;42.53
68793;BME280;55778;54.346;10.210;2023-05-22T10:25:27;101235.38;;;27.26;41.96
68793;BME280;55778;54.346;10.210;2023-05-22T10:27:54;101231.47;;;27.50;41.83
68793;BME280;55778;54.346;10.210;2023-05-22T10:30:28;101233.97;;;27.75;41.27
68793;BME280;55778;54.346;10.210;2023-05-22T10:33:02;101221.44;;;27.89;39.13
68793;BME280;55778;54.346;10.210;2023-05-22T10:35:35;101226.63;;;27.97;40.70
68793;BME280;55778;54.346;10.210;2023-05-22T10:40:46;101221.59;;;27.13;42.22
68793;BME280;55778;54.346;10.210;2023-05-22T10:43:12;101218.66;;;26.96;43.83
68793;BME280;55778;54.346;10.210;2023-05-22T10:45:38;101219.25;;;26.46;45.89
68793;BME280;55778;54.346;10.210;2023-05-22T10:48:10;101219.72;;;25.95;47.17
68793;BME280;55778;54.346;10.210;2023-05-22T10:50:38;101210.88;;;25.80;46.69
68793;BME280;55778;54.346;10.210;2023-05-22T10:53:30;101216.13;;;25.59;47.83
68793;BME280;55778;54.346;10.210;2023-05-22T10:55:58;101212.31;;;25.53;48.03
68793;BME280;55778;54.346;10.210;2023-05-22T10:58:30;101207.03;;;25.45;48.23
68793;BME280;55778;54.346;10.210;2023-05-22T11:01:19;101206.56;;;25.05;48.98
68793;BME280;55778;54.346;10.210;2023-05-22T11:06:40;101209.44;;;24.43;50.91
68793;BME280;55778;54.346;10.210;2023-05-22T11:09:30;101211.47;;;24.23;50.92
68793;BME280;55778;54.346;10.210;2023-05-22T11:12:18;101207.25;;;24.14;51.38
68793;BME280;55778;54.346;10.210;2023-05-22T11:17:20;101204.56;;;23.95;52.07
68793;BME280;55778;54.346;10.210;2023-05-22T11:20:04;101206.84;;;24.11;52.58
68793;BME280;55778;54.346;10.210;2023-05-22T11:24:59;101204.34;;;23.90;53.24
68793;BME280;55778;54.346;10.210;2023-05-22T11:27:27;101202.09;;;23.67;53.64
68793;BME280;55778;54.346;10.210;2023-05-22T11:29:53;101198.06;;;23.57;54.95
68793;BME280;55778;54.346;10.210;2023-05-22T11:32:19;101204.34;;;23.45;55.20
68793;BME280;55778;54.346;10.210;2023-05-22T11:34:46;101201.13;;;23.35;55.20
68793;BME280;55778;54.346;10.210;2023-05-22T11:37:16;101194.53;;;23.30;55.21
68793;BME280;55778;54.346;10.210;2023-05-22T11:39:47;101189.19;;;23.15;56.09
68793;BME280;55778;54.346;10.210;2023-05-22T11:42:13;101192.16;;;23.07;57.12
68793;BME280;55778;54.346;10.210;2023-05-22T11:44:39;101186.63;;;23.07;56.00
68793;BME280;55778;54.346;10.210;2023-05-22T11:47:05;101185.34;;;23.03;55.99
68793;BME280;55778;54.346;10.210;2023-05-22T11:49:31;101190.47;;;23.00;55.16
68793;BME280;55778;54.346;10.210;2023-05-22T11:51:56;101192.16;;;23.07;55.84
68793;BME280;55778;54.346;10.210;2023-05-22T11:54:21;101177.66;;;22.99;55.41
68793;BME280;55778;54.346;10.210;2023-05-22T11:56:47;101181.94;;;22.95;56.03
68793;BME280;55778;54.346;10.210;2023-05-22T11:59:12;101176.59;;;22.87;55.81
68793;BME280;55778;54.346;10.210;2023-05-22T12:01:38;101175.94;;;22.85;55.30
68793;BME280;55778;54.346;10.210;2023-05-22T12:04:03;101181.13;;;22.68;56.38
68793;BME280;55778;54.346;10.210;2023-05-22T12:06:29;101185.31;;;22.45;56.37
68793;BME280;55778;54.346;10.210;2023-05-22T12:09:00;101183.84;;;22.42;56.95
68793;BME280;55778;54.346;10.210;2023-05-22T12:11:25;101182.09;;;22.22;58.05
68793;BME280;55778;54.346;10.210;2023-05-22T12:14:04;101181.88;;;22.23;59.16
68793;BME280;55778;54.346;10.210;2023-05-22T12:16:34;101187.00;;;22.20;59.89
68793;BME280;55778;54.346;10.210;2023-05-22T12:19:07;101178.19;;;22.03;60.21
68793;BME280;55778;54.346;10.210;2023-05-22T12:21:33;101178.16;;;21.77;60.49
68793;BME280;55778;54.346;10.210;2023-05-22T12:24:03;101173.59;;;21.63;60.38
68793;BME280;55778;54.346;10.210;2023-05-22T12:26:30;101169.44;;;21.46;61.46
68793;BME280;55778;54.346;10.210;2023-05-22T12:28:59;101162.97;;;21.32;62.28
68793;BME280;55778;54.346;10.210;2023-05-22T12:31:24;101159.06;;;21.20;62.19
68793;BME280;55778;54.346;10.210;2023-05-22T12:33:54;101168.00;;;21.16;62.68
68793;BME280;55778;54.346;10.210;2023-05-22T12:36:20;101165.50;;;21.21;61.81
68793;BME280;55778;54.346;10.210;2023-05-22T12:38:45;101162.72;;;21.21;61.32
68793;BME280;55778;54.346;10.210;2023-05-22T12:41:11;101164.81;;;21.12;61.52
68793;BME280;55778;54.346;10.210;2023-05-22T12:43:36;101159.69;;;21.16;62.19
68793;BME280;55778;54.346;10.210;2023-05-22T12:46:02;101152.91;;;21.25;61.15
68793;BME280;55778;54.346;10.210;2023-05-22T12:48:27;101166.75;;;21.18;61.00